sensor_id;sensor_type;location;lat;lon;timestamp;pressure;altitude;pressure_sealevel;temperature;humidity
64544;BME280;50936;51.660;5.616;2023-07-31T00:00:14;100667.31;;;28.01;45.86
64544;BME280;50936;51.660;5.616;2023-07-31T00:02:41;100669.25;;;28.01;46.02
64544;BME280;50936;51.660;5.616;2023-07-31T00:05:09;100666.91;;;27.98;45.98
64544;BME280;50936;51.660;5.616;2023-07-31T00:07:36;100672.00;;;28.01;46.07
64544;BME280;50936;51.660;5.616;2023-07-31T00:10:03;100669.84;;;28.03;46.08
64544;BME280;50936;51.660;5.616;2023-07-31T00:12:30;100670.53;;;27.98;46.12
64544;BME280;50936;51.660;5.616;2023-07-31T00:14:57;100667.53;;;28.00;46.14
64544;BME280;50936;51.660;5.616;2023-07-31T00:17:24;100664.97;;;27.98;46.02
64544;BME280;50936;51.660;5.616;2023-07-31T00:19:51;100661.97;;;28.00;46.18
64544;BME280;50936;51.660;5.616;2023-07-31T00:22:18;100670.53;;;27.98;46.22
64544;BME280;50936;51.660;5.616;2023-07-31T00:24:45;100667.97;;;27.97;46.24
64544;BME280;50936;51.660;5.616;2023-07-31T00:27:12;100666.06;;;27.97;46.50
64544;BME280;50936;51.660;5.616;2023-07-31T00:29:39;100665.84;;;27.99;46.20
64544;BME280;50936;51.660;5.616;2023-07-31T00:32:06;100664.97;;;27.98;46.20
64544;BME280;50936;51.660;5.616;2023-07-31T00:34:34;100664.13;;;27.98;46.31
64544;BME280;50936;51.660;5.616;2023-07-31T00:37:02;100659.41;;;27.98;46.28
64544;BME280;50936;51.660;5.616;2023-07-31T00:39:30;100653.47;;;27.95;46.43
64544;BME280;50936;51.660;5.616;2023-07-31T00:41:59;100647.69;;;27.96;46.33
64544;BME280;50936;51.660;5.616;2023-07-31T00:44:26;100658.19;;;27.94;46.41
64544;BME280;50936;51.660;5.616;2023-07-31T00:46:53;100656.88;;;27.97;46.07
64544;BME280;50936;51.660;5.616;2023-07-31T00:49:23;100656.88;;;27.97;46.46
64544;BME280;50936;51.660;5.616;2023-07-31T00:51:50;100656.03;;;27.96;46.39
64544;BME280;50936;51.660;5.616;2023-07-31T00:54:17;100655.41;;;27.94;46.44
64544;BME280;50936;51.660;5.616;2023-07-31T00:56:47;100648.78;;;27.95;46.32
64544;BME280;50936;51.660;5.616;2023-07-31T00:59:15;100650.91;;;27.93;46.50
64544;BME280;50936;51.660;5.616;2023-07-31T01:01:42;100651.31;;;27.97;46.44
64544;BME280;50936;51.660;5.616;2023-07-31T01:04:09;100638.13;;;27.92;46.47
64544;BME280;50936;51.660;5.616;2023-07-31T01:06:49;100646.63;;;27.97;46.45
64544;BME280;50936;51.660;5.616;2023-07-31T01:12:02;100640.47;;;27.95;46.39
64544;BME280;50936;51.660;5.616;2023-07-31T01:14:30;100635.13;;;27.94;46.63
64544;BME280;50936;51.660;5.616;2023-07-31T01:16:57;100633.22;;;27.88;46.53
64544;BME280;50936;51.660;5.616;2023-07-31T01:19:25;100638.13;;;27.92;46.59
64544;BME280;50936;51.660;5.616;2023-07-31T01:31:23;100638.53;;;27.96;46.46
64544;BME280;50936;51.660;5.616;2023-07-31T01:33:53;100638.13;;;27.92;46.41
64544;BME280;50936;51.660;5.616;2023-07-31T01:36:23;100645.66;;;28.10;46.01
64544;BME280;50936;51.660;5.616;2023-07-31T01:38:50;100629.97;;;27.97;46.39
64544;BME280;50936;51.660;5.616;2023-07-31T01:41:17;100639.81;;;27.93;46.51
64544;BME280;50936;51.660;5.616;2023-07-31T01:43:46;100637.28;;;27.92;46.58
64544;BME280;50936;51.660;5.616;2023-07-31T01:46:13;100627.91;;;27.86;46.65
64544;BME280;50936;51.660;5.616;2023-07-31T01:48:40;100635.16;;;27.87;46.78
64544;BME280;50936;51.660;5.616;2023-07-31T01:51:07;100631.31;;;27.88;46.65
64544;BME280;50936;51.660;5.616;2023-07-31T01:53:35;100626.41;;;27.90;46.69
64544;BME280;50936;51.660;5.616;2023-07-31T01:56:02;100619.13;;;27.89;46.43
64544;BME280;50936;51.660;5.616;2023-07-31T01:58:29;100627.44;;;27.89;46.62
64544;BME280;50936;51.660;5.616;2023-07-31T02:00:56;100618.50;;;27.87;46.67
64544;BME280;50936;51.660;5.616;2023-07-31T02:03:23;100617.88;;;27.85;46.48
64544;BME280;50936;51.660;5.616;2023-07-31T02:05:54;100617.44;;;27.88;46.82
64544;BME280;50936;51.660;5.616;2023-07-31T02:08:21;100622.97;;;27.88;46.79
64544;BME280;50936;51.660;5.616;2023-07-31T02:10:48;100618.50;;;27.87;46.66
64544;BME280;50936;51.660;5.616;2023-07-31T02:13:15;100610.41;;;27.85;46.69
64544;BME280;50936;51.660;5.616;2023-07-31T02:15:42;100614.03;;;27.86;46.68
64544;BME280;50936;51.660;5.616;2023-07-31T02:18:10;100614.03;;;27.86;46.64
64544;BME280;50936;51.660;5.616;2023-07-31T02:20:37;100597.63;;;27.84;46.55
64544;BME280;50936;51.660;5.616;2023-07-31T02:23:03;100591.44;;;27.82;46.51
64544;BME280;50936;51.660;5.616;2023-07-31T02:25:30;100591.19;;;27.84;46.68
64544;BME280;50936;51.660;5.616;2023-07-31T02:27:57;100590.34;;;27.83;46.63
64544;BME280;50936;51.660;5.616;2023-07-31T02:30:25;100591.19;;;27.84;46.63
64544;BME280;50936;51.660;5.616;2023-07-31T02:32:51;100589.50;;;27.83;46.56
64544;BME280;50936;51.660;5.616;2023-07-31T02:35:18;100593.34;;;27.82;46.51
64544;BME280;50936;51.660;5.616;2023-07-31T02:37:45;100601.22;;;27.85;46.59
64544;BME280;50936;51.660;5.616;2023-07-31T02:40:12;100588.66;;;27.82;46.49
64544;BME280;50936;51.660;5.616;2023-07-31T02:42:40;100585.63;;;27.84;46.69
64544;BME280;50936;51.660;5.616;2023-07-31T02:45:07;100585.63;;;27.84;46.38
64544;BME280;50936;51.660;5.616;2023-07-31T02:47:34;100583.97;;;27.83;46.48
64544;BME280;50936;51.660;5.616;2023-07-31T02:50:02;100586.97;;;27.81;46.41
64544;BME280;50936;51.660;5.616;2023-07-31T02:52:30;100583.56;;;27.79;46.54
64544;BME280;50936;51.660;5.616;2023-07-31T02:54:57;100570.75;;;27.78;46.88
64544;BME280;50936;51.660;5.616;2023-07-31T02:57:24;100577.19;;;27.79;46.75
64544;BME280;50936;51.660;5.616;2023-07-31T02:59:51;100564.38;;;27.78;46.52
64544;BME280;50936;51.660;5.616;2023-07-31T03:02:19;100576.09;;;27.80;46.61
64544;BME280;50936;51.660;5.616;2023-07-31T03:04:46;100575.84;;;27.81;46.64
64544;BME280;50936;51.660;5.616;2023-07-31T03:07:13;100578.00;;;27.79;46.55
64544;BME280;50936;51.660;5.616;2023-07-31T03:09:40;100571.63;;;27.79;46.56
64544;BME280;50936;51.660;5.616;2023-07-31T03:12:08;100566.53;;;27.76;46.64
64544;BME280;50936;51.660;5.616;2023-07-31T03:14:35;100569.91;;;27.78;46.51
64544;BME280;50936;51.660;5.616;2023-07-31T03:17:02;100572.47;;;27.79;46.42
64544;BME280;50936;51.660;5.616;2023-07-31T03:19:31;100577.19;;;27.79;46.31
64544;BME280;50936;51.660;5.616;2023-07-31T03:21:59;100577.63;;;27.76;46.63
64544;BME280;50936;51.660;5.616;2023-07-31T03:24:28;100569.47;;;27.81;46.47
64544;BME280;50936;51.660;5.616;2023-07-31T03:26:56;100572.91;;;27.76;46.42
64544;BME280;50936;51.660;5.616;2023-07-31T03:29:23;100575.47;;;27.78;46.29
64544;BME280;50936;51.660;5.616;2023-07-31T03:31:51;100566.53;;;27.76;46.48
64544;BME280;50936;51.660;5.616;2023-07-31T03:34:18;100569.28;;;27.76;46.37
64544;BME280;50936;51.660;5.616;2023-07-31T03:36:45;100559.25;;;27.75;46.33
64544;BME280;50936;51.660;5.616;2023-07-31T03:39:12;100560.13;;;27.75;46.27
64544;BME280;50936;51.660;5.616;2023-07-31T03:41:39;100558.19;;;27.76;46.28
64544;BME280;50936;51.660;5.616;2023-07-31T03:44:06;100548.16;;;27.75;46.19
64544;BME280;50936;51.660;5.616;2023-07-31T03:46:34;100551.56;;;27.77;45.98
64544;BME280;50936;51.660;5.616;2023-07-31T03:49:03;100539.22;;;27.73;46.16
64544;BME280;50936;51.660;5.616;2023-07-31T03:51:30;100549.03;;;27.75;46.24
64544;BME280;50936;51.660;5.616;2023-07-31T03:53:57;100539.63;;;27.76;46.07
64544;BME280;50936;51.660;5.616;2023-07-31T03:56:24;100542.00;;;27.73;46.19
64544;BME280;50936;51.660;5.616;2023-07-31T03:58:51;100540.94;;;27.74;46.05
64544;BME280;50936;51.660;5.616;2023-07-31T04:01:17;100542.88;;;27.73;46.14
64544;BME280;50936;51.660;5.616;2023-07-31T04:03:48;100535.38;;;27.74;46.07
64544;BME280;50936;51.660;5.616;2023-07-31T04:06:14;100529.84;;;27.74;46.17
64544;BME280;50936;51.660;5.616;2023-07-31T04:08:44;100524.28;;;27.74;45.93
64544;BME280;50936;51.660;5.616;2023-07-31T04:11:11;100532.59;;;27.74;46.17
64544;BME280;50936;51.660;5.616;2023-07-31T04:13:39;100522.56;;;27.73;45.90
64544;BME280;50936;51.660;5.616;2023-07-31T04:16:06;100519.19;;;27.71;45.96
64544;BME280;50936;51.660;5.616;2023-07-31T04:18:33;100523.06;;;27.70;46.11
64544;BME280;50936;51.660;5.616;2023-07-31T04:20:59;100519.19;;;27.71;46.28
64544;BME280;50936;51.660;5.616;2023-07-31T04:23:28;100514.25;;;27.73;46.08
64544;BME280;50936;51.660;5.616;2023-07-31T04:25:55;100518.13;;;27.72;45.96
64544;BME280;50936;51.660;5.616;2023-07-31T04:28:22;100513.63;;;27.71;46.01
64544;BME280;50936;51.660;5.616;2023-07-31T04:30:49;100513.63;;;27.71;45.91
64544;BME280;50936;51.660;5.616;2023-07-31T04:33:16;100517.03;;;27.73;45.93
64544;BME280;50936;51.660;5.616;2023-07-31T04:35:50;100520.91;;;27.72;45.89
64544;BME280;50936;51.660;5.616;2023-07-31T04:38:19;100509.19;;;27.70;45.84
64544;BME280;50936;51.660;5.616;2023-07-31T04:40:48;100516.84;;;27.68;45.75
64544;BME280;50936;51.660;5.616;2023-07-31T04:43:15;100515.78;;;27.69;45.91
64544;BME280;50936;51.660;5.616;2023-07-31T04:45:45;100501.91;;;27.69;45.75
64544;BME280;50936;51.660;5.616;2023-07-31T04:48:14;100511.94;;;27.70;45.94
64544;BME280;50936;51.660;5.616;2023-07-31T04:50:41;100502.97;;;27.68;45.80
64544;BME280;50936;51.660;5.616;2023-07-31T04:53:08;100502.97;;;27.68;45.75
64544;BME280;50936;51.660;5.616;2023-07-31T04:55:35;100508.53;;;27.68;46.05
64544;BME280;50936;51.660;5.616;2023-07-31T04:58:02;100502.97;;;27.68;46.02
64544;BME280;50936;51.660;5.616;2023-07-31T05:00:29;100500.22;;;27.68;46.05
64544;BME280;50936;51.660;5.616;2023-07-31T05:02:56;100498.75;;;27.65;45.99
64544;BME280;50936;51.660;5.616;2023-07-31T05:05:23;100494.03;;;27.65;46.06
64544;BME280;50936;51.660;5.616;2023-07-31T05:07:50;100497.91;;;27.64;46.06
64544;BME280;50936;51.660;5.616;2023-07-31T05:10:17;100490.22;;;27.67;46.20
64544;BME280;50936;51.660;5.616;2023-07-31T05:12:44;100488.50;;;27.65;46.17
64544;BME280;50936;51.660;5.616;2023-07-31T05:15:11;100484.66;;;27.67;46.00
64544;BME280;50936;51.660;5.616;2023-07-31T05:17:38;100483.44;;;27.62;46.15
64544;BME280;50936;51.660;5.616;2023-07-31T05:20:06;100480.16;;;27.65;46.39
64544;BME280;50936;51.660;5.616;2023-07-31T05:22:33;100468.00;;;27.67;46.13
64544;BME280;50936;51.660;5.616;2023-07-31T05:25:00;100466.31;;;27.65;46.30
64544;BME280;50936;51.660;5.616;2023-07-31T05:27:27;100474.63;;;27.65;46.31
64544;BME280;50936;51.660;5.616;2023-07-31T05:29:54;100472.72;;;27.66;46.25
64544;BME280;50936;51.660;5.616;2023-07-31T05:32:22;100462.91;;;27.63;46.35
64544;BME280;50936;51.660;5.616;2023-07-31T05:34:51;100464.41;;;27.66;46.37
64544;BME280;50936;51.660;5.616;2023-07-31T05:37:19;100461.84;;;27.64;46.44
64544;BME280;50936;51.660;5.616;2023-07-31T05:39:46;100460.75;;;27.65;46.49
64544;BME280;50936;51.660;5.616;2023-07-31T05:42:13;100459.91;;;27.65;46.41
64544;BME280;50936;51.660;5.616;2023-07-31T05:44:40;100457.38;;;27.63;46.71
64544;BME280;50936;51.660;5.616;2023-07-31T05:47:07;100460.13;;;27.63;46.60
64544;BME280;50936;51.660;5.616;2023-07-31T05:49:34;100459.91;;;27.65;46.83
64544;BME280;50936;51.660;5.616;2023-07-31T05:52:01;100453.31;;;27.66;46.82
64544;BME280;50936;51.660;5.616;2023-07-31T05:54:28;100440.72;;;27.63;46.73
64544;BME280;50936;51.660;5.616;2023-07-31T05:56:55;100436.88;;;27.64;47.03
64544;BME280;50936;51.660;5.616;2023-07-31T05:59:22;100435.66;;;27.60;46.97
64544;BME280;50936;51.660;5.616;2023-07-31T06:01:48;100437.94;;;27.63;46.80
64544;BME280;50936;51.660;5.616;2023-07-31T06:04:16;100435.19;;;27.63;47.10
64544;BME280;50936;51.660;5.616;2023-07-31T06:06:43;100437.28;;;27.68;46.97
64544;BME280;50936;51.660;5.616;2023-07-31T06:09:10;100431.94;;;27.67;47.30
64544;BME280;50936;51.660;5.616;2023-07-31T06:11:37;100436.66;;;27.66;47.18
64544;BME280;50936;51.660;5.616;2023-07-31T06:14:03;100431.34;;;27.64;47.36
64544;BME280;50936;51.660;5.616;2023-07-31T06:16:30;100430.00;;;27.67;47.61
64544;BME280;50936;51.660;5.616;2023-07-31T06:18:57;100430.00;;;27.67;47.64
64544;BME280;50936;51.660;5.616;2023-07-31T06:21:24;100430.84;;;27.68;47.70
64544;BME280;50936;51.660;5.616;2023-07-31T06:23:51;100429.19;;;27.67;47.89
64544;BME280;50936;51.660;5.616;2023-07-31T06:26:18;100434.72;;;27.67;47.84
64544;BME280;50936;51.660;5.616;2023-07-31T06:28:45;100433.00;;;27.65;47.82
64544;BME280;50936;51.660;5.616;2023-07-31T06:31:13;100429.19;;;27.67;48.03
64544;BME280;50936;51.660;5.616;2023-07-31T06:33:40;100429.19;;;27.67;48.18
64544;BME280;50936;51.660;5.616;2023-07-31T06:36:07;100423.63;;;27.67;48.52
64544;BME280;50936;51.660;5.616;2023-07-31T06:38:34;100422.53;;;27.68;48.44
64544;BME280;50936;51.660;5.616;2023-07-31T06:41:01;100427.03;;;27.69;48.53
64544;BME280;50936;51.660;5.616;2023-07-31T06:43:28;100422.69;;;27.73;48.53
64544;BME280;50936;51.660;5.616;2023-07-31T06:45:55;100414.00;;;27.69;48.20
64544;BME280;50936;51.660;5.616;2023-07-31T06:48:22;100406.53;;;27.70;48.76
64544;BME280;50936;51.660;5.616;2023-07-31T06:50:49;100401.00;;;27.70;48.68
64544;BME280;50936;51.660;5.616;2023-07-31T06:53:16;100397.72;;;27.73;48.49
64544;BME280;50936;51.660;5.616;2023-07-31T06:55:43;100392.66;;;27.70;48.66
64544;BME280;50936;51.660;5.616;2023-07-31T06:58:10;100383.25;;;27.71;48.83
64544;BME280;50936;51.660;5.616;2023-07-31T07:00:36;100386.84;;;27.71;48.89
64544;BME280;50936;51.660;5.616;2023-07-31T07:03:03;100390.50;;;27.72;49.15
64544;BME280;50936;51.660;5.616;2023-07-31T07:05:30;100394.97;;;27.73;48.83
64544;BME280;50936;51.660;5.616;2023-07-31T07:07:57;100393.28;;;27.72;48.88
64544;BME280;50936;51.660;5.616;2023-07-31T07:10:24;100384.47;;;27.75;48.83
64544;BME280;50936;51.660;5.616;2023-07-31T07:12:52;100384.34;;;27.70;49.04
64544;BME280;50936;51.660;5.616;2023-07-31T07:15:21;100383.84;;;27.73;48.95
64544;BME280;50936;51.660;5.616;2023-07-31T07:17:48;100383.03;;;27.72;48.88
64544;BME280;50936;51.660;5.616;2023-07-31T07:20:16;100378.31;;;27.73;48.80
64544;BME280;50936;51.660;5.616;2023-07-31T07:22:43;100378.09;;;27.74;48.90
64544;BME280;50936;51.660;5.616;2023-07-31T07:25:10;100381.69;;;27.75;49.00
64544;BME280;50936;51.660;5.616;2023-07-31T07:27:37;100372.75;;;27.73;49.00
64544;BME280;50936;51.660;5.616;2023-07-31T07:30:04;100368.91;;;27.74;49.04
64544;BME280;50936;51.660;5.616;2023-07-31T07:32:31;100372.75;;;27.73;49.11
64544;BME280;50936;51.660;5.616;2023-07-31T07:34:58;100370.59;;;27.75;49.21
64544;BME280;50936;51.660;5.616;2023-07-31T07:37:25;100368.91;;;27.74;49.10
64544;BME280;50936;51.660;5.616;2023-07-31T07:39:52;100373.63;;;27.73;49.12
64544;BME280;50936;51.660;5.616;2023-07-31T07:42:19;100371.91;;;27.72;49.01
64544;BME280;50936;51.660;5.616;2023-07-31T07:44:46;100375.75;;;27.71;49.07
64544;BME280;50936;51.660;5.616;2023-07-31T07:47:13;100367.69;;;27.70;48.98
64544;BME280;50936;51.660;5.616;2023-07-31T07:49:40;100387.72;;;27.72;49.08
64544;BME280;50936;51.660;5.616;2023-07-31T07:52:07;100372.16;;;27.71;49.22
64544;BME280;50936;51.660;5.616;2023-07-31T07:54:34;100365.53;;;27.72;49.12
64544;BME280;50936;51.660;5.616;2023-07-31T07:57:01;100375.38;;;27.68;49.35
64544;BME280;50936;51.660;5.616;2023-07-31T07:59:28;100366.00;;;27.69;49.07
64544;BME280;50936;51.660;5.616;2023-07-31T08:01:55;100370.69;;;27.68;49.03
64544;BME280;50936;51.660;5.616;2023-07-31T08:04:22;100369.81;;;27.68;49.34
64544;BME280;50936;51.660;5.616;2023-07-31T08:06:49;100369.59;;;27.69;49.15
64544;BME280;50936;51.660;5.616;2023-07-31T08:09:16;100376.63;;;27.72;49.22
64544;BME280;50936;51.660;5.616;2023-07-31T08:11:43;100362.16;;;27.70;49.24
64544;BME280;50936;51.660;5.616;2023-07-31T08:14:09;100363.22;;;27.69;49.25
64544;BME280;50936;51.660;5.616;2023-07-31T08:16:36;100360.44;;;27.69;49.20
64544;BME280;50936;51.660;5.616;2023-07-31T08:19:04;100363.44;;;27.67;49.02
64544;BME280;50936;51.660;5.616;2023-07-31T08:21:31;100362.00;;;27.64;49.16
64544;BME280;50936;51.660;5.616;2023-07-31T08:23:58;100369.81;;;27.68;49.28
64544;BME280;50936;51.660;5.616;2023-07-31T08:26:25;100363.44;;;27.67;49.16
64544;BME280;50936;51.660;5.616;2023-07-31T08:28:53;100357.06;;;27.67;49.08
64544;BME280;50936;51.660;5.616;2023-07-31T08:31:20;100364.28;;;27.68;49.25
64544;BME280;50936;51.660;5.616;2023-07-31T08:33:47;100362.16;;;27.70;49.16
64544;BME280;50936;51.660;5.616;2023-07-31T08:36:13;100358.72;;;27.68;49.10
64544;BME280;50936;51.660;5.616;2023-07-31T08:38:40;100362.59;;;27.67;49.31
64544;BME280;50936;51.660;5.616;2023-07-31T08:41:07;100358.72;;;27.68;49.10
64544;BME280;50936;51.660;5.616;2023-07-31T08:43:35;100358.72;;;27.68;49.03
64544;BME280;50936;51.660;5.616;2023-07-31T08:46:04;100357.06;;;27.67;49.18
64544;BME280;50936;51.660;5.616;2023-07-31T08:48:32;100359.81;;;27.67;49.17
64544;BME280;50936;51.660;5.616;2023-07-31T08:51:00;100355.97;;;27.68;49.34
64544;BME280;50936;51.660;5.616;2023-07-31T08:53:27;100364.75;;;27.64;49.29
64544;BME280;50936;51.660;5.616;2023-07-31T08:55:54;100365.16;;;27.68;49.21
64544;BME280;50936;51.660;5.616;2023-07-31T08:58:27;100363.22;;;27.69;49.07
64544;BME280;50936;51.660;5.616;2023-07-31T09:01:01;100356.81;;;27.68;49.27
64544;BME280;50936;51.660;5.616;2023-07-31T09:03:34;100363.44;;;27.67;49.04
64544;BME280;50936;51.660;5.616;2023-07-31T09:06:03;100373.94;;;27.65;49.27
64544;BME280;50936;51.660;5.616;2023-07-31T09:08:32;100358.13;;;27.65;49.11
64544;BME280;50936;51.660;5.616;2023-07-31T09:11:01;100364.53;;;27.66;49.30
64544;BME280;50936;51.660;5.616;2023-07-31T09:13:32;100353.91;;;27.63;49.15
64544;BME280;50936;51.660;5.616;2023-07-31T09:15:59;100354.50;;;27.65;49.20
64544;BME280;50936;51.660;5.616;2023-07-31T09:18:26;100346.41;;;27.63;49.11
64544;BME280;50936;51.660;5.616;2023-07-31T09:21:04;100347.63;;;27.68;49.35
64544;BME280;50936;51.660;5.616;2023-07-31T09:24:01;100350.56;;;27.73;49.25
64544;BME280;50936;51.660;5.616;2023-07-31T09:26:33;100356.59;;;27.70;49.23
64544;BME280;50936;51.660;5.616;2023-07-31T09:29:04;100346.78;;;27.67;49.10
64544;BME280;50936;51.660;5.616;2023-07-31T09:31:39;100351.50;;;27.67;49.36
64544;BME280;50936;51.660;5.616;2023-07-31T09:34:08;100348.97;;;27.65;49.30
64544;BME280;50936;51.660;5.616;2023-07-31T09:36:54;100340.78;;;27.70;49.49
64544;BME280;50936;51.660;5.616;2023-07-31T09:39:21;100330.59;;;27.64;49.33
64544;BME280;50936;51.660;5.616;2023-07-31T09:41:54;100338.25;;;27.69;49.33
64544;BME280;50936;51.660;5.616;2023-07-31T09:44:37;100329.69;;;27.70;49.17
64544;BME280;50936;51.660;5.616;2023-07-31T09:47:06;100329.31;;;27.67;49.28
64544;BME280;50936;51.660;5.616;2023-07-31T09:49:33;100325.44;;;27.68;49.38
64544;BME280;50936;51.660;5.616;2023-07-31T09:52:00;100331.00;;;27.68;49.44
64544;BME280;50936;51.660;5.616;2023-07-31T09:54:27;100331.00;;;27.68;49.28
64544;BME280;50936;51.660;5.616;2023-07-31T09:56:55;100326.53;;;27.67;49.43
64544;BME280;50936;51.660;5.616;2023-07-31T09:59:25;100332.69;;;27.69;49.33
64544;BME280;50936;51.660;5.616;2023-07-31T10:01:53;100329.09;;;27.68;49.47
64544;BME280;50936;51.660;5.616;2023-07-31T10:04:25;100341.63;;;27.71;49.41
64544;BME280;50936;51.660;5.616;2023-07-31T10:06:54;100331.63;;;27.88;48.86
64544;BME280;50936;51.660;5.616;2023-07-31T10:09:24;100333.47;;;27.76;49.00
64544;BME280;50936;51.660;5.616;2023-07-31T10:11:58;100323.44;;;27.75;49.27
64544;BME280;50936;51.660;5.616;2023-07-31T10:14:27;100325.00;;;27.71;49.46
64544;BME280;50936;51.660;5.616;2023-07-31T10:16:57;100321.16;;;27.72;49.48
64544;BME280;50936;51.660;5.616;2023-07-31T10:19:26;100326.22;;;27.75;49.40
64544;BME280;50936;51.660;5.616;2023-07-31T10:21:55;100319.44;;;27.71;49.41
64544;BME280;50936;51.660;5.616;2023-07-31T10:24:23;100323.44;;;27.75;49.68
64544;BME280;50936;51.660;5.616;2023-07-31T10:26:52;100322.22;;;27.71;49.67
64544;BME280;50936;51.660;5.616;2023-07-31T10:29:21;100317.28;;;27.73;50.05
64544;BME280;50936;51.660;5.616;2023-07-31T10:31:50;100315.13;;;27.75;50.23
64544;BME280;50936;51.660;5.616;2023-07-31T10:34:18;100325.75;;;27.78;50.45
64544;BME280;50936;51.660;5.616;2023-07-31T10:36:45;100315.72;;;27.77;50.57
64544;BME280;50936;51.660;5.616;2023-07-31T10:39:34;100312.88;;;27.83;50.81
64544;BME280;50936;51.660;5.616;2023-07-31T10:42:13;100319.53;;;27.82;51.45
64544;BME280;50936;51.660;5.616;2023-07-31T10:44:46;100306.47;;;27.83;51.50
64544;BME280;50936;51.660;5.616;2023-07-31T10:47:17;100313.72;;;27.84;51.81
64544;BME280;50936;51.660;5.616;2023-07-31T10:49:45;100317.81;;;27.81;51.82
64544;BME280;50936;51.660;5.616;2023-07-31T10:52:13;100310.94;;;27.84;52.13
64544;BME280;50936;51.660;5.616;2023-07-31T10:54:45;100303.47;;;27.84;52.12
64544;BME280;50936;51.660;5.616;2023-07-31T10:57:22;100309.88;;;27.85;52.29
64544;BME280;50936;51.660;5.616;2023-07-31T10:59:50;100306.03;;;27.86;52.20
64544;BME280;50936;51.660;5.616;2023-07-31T11:02:27;100304.31;;;27.85;52.52
64544;BME280;50936;51.660;5.616;2023-07-31T11:05:07;100305.53;;;27.89;52.55
64544;BME280;50936;51.660;5.616;2023-07-31T11:07:48;100302.16;;;27.87;52.50
64544;BME280;50936;51.660;5.616;2023-07-31T11:10:17;100299.16;;;27.89;52.48
64544;BME280;50936;51.660;5.616;2023-07-31T11:12:45;100304.31;;;27.85;52.44
64544;BME280;50936;51.660;5.616;2023-07-31T11:15:13;100306.03;;;27.86;52.54
64544;BME280;50936;51.660;5.616;2023-07-31T11:17:40;100306.03;;;27.86;52.58
64544;BME280;50936;51.660;5.616;2023-07-31T11:20:08;100311.56;;;27.86;52.57
64544;BME280;50936;51.660;5.616;2023-07-31T11:22:35;100307.72;;;27.87;52.47
64544;BME280;50936;51.660;5.616;2023-07-31T11:25:03;100301.53;;;27.85;52.57
64544;BME280;50936;51.660;5.616;2023-07-31T11:27:30;100300.47;;;27.86;52.58
64544;BME280;50936;51.660;5.616;2023-07-31T11:30:01;100299.38;;;27.87;52.77
64544;BME280;50936;51.660;5.616;2023-07-31T11:32:29;100300.47;;;27.86;52.57
64544;BME280;50936;51.660;5.616;2023-07-31T11:34:56;100300.47;;;27.86;52.56
64544;BME280;50936;51.660;5.616;2023-07-31T11:37:23;100291.28;;;27.85;52.67
64544;BME280;50936;51.660;5.616;2023-07-31T11:40:00;100297.84;;;27.91;52.67
64544;BME280;50936;51.660;5.616;2023-07-31T11:42:28;100291.66;;;27.89;52.67
64544;BME280;50936;51.660;5.616;2023-07-31T11:44:54;100288.47;;;27.92;52.48
64544;BME280;50936;51.660;5.616;2023-07-31T11:47:21;100290.63;;;27.90;52.55
64544;BME280;50936;51.660;5.616;2023-07-31T11:49:49;100286.75;;;27.91;52.63
64544;BME280;50936;51.660;5.616;2023-07-31T11:52:17;100289.53;;;27.91;52.57
64544;BME280;50936;51.660;5.616;2023-07-31T11:54:47;100285.09;;;27.90;52.70
64544;BME280;50936;51.660;5.616;2023-07-31T11:57:15;100284.25;;;27.90;52.79
64544;BME280;50936;51.660;5.616;2023-07-31T11:59:42;100286.75;;;27.91;52.56
64544;BME280;50936;51.660;5.616;2023-07-31T12:02:10;100274.41;;;27.87;52.56
64544;BME280;50936;51.660;5.616;2023-07-31T12:04:37;100275.66;;;27.91;52.78
64544;BME280;50936;51.660;5.616;2023-07-31T12:07:05;100281.22;;;27.91;52.63
64544;BME280;50936;51.660;5.616;2023-07-31T12:09:32;100277.38;;;27.92;52.83
64544;BME280;50936;51.660;5.616;2023-07-31T12:11:59;100279.53;;;27.90;52.89
64544;BME280;50936;51.660;5.616;2023-07-31T12:14:28;100290.13;;;27.93;53.07
64544;BME280;50936;51.660;5.616;2023-07-31T12:17:00;100288.47;;;27.92;53.10
64544;BME280;50936;51.660;5.616;2023-07-31T12:19:31;100292.91;;;27.93;53.02
64544;BME280;50936;51.660;5.616;2023-07-31T12:22:01;100292.69;;;27.95;53.25
64544;BME280;50936;51.660;5.616;2023-07-31T12:24:28;100291.84;;;27.94;53.19
64544;BME280;50936;51.660;5.616;2023-07-31T12:26:55;100291.00;;;27.94;53.33
64544;BME280;50936;51.660;5.616;2023-07-31T12:29:22;100283.53;;;27.94;53.22
64544;BME280;50936;51.660;5.616;2023-07-31T12:31:49;100285.22;;;27.95;53.06
64544;BME280;50936;51.660;5.616;2023-07-31T12:34:17;100269.66;;;27.94;52.96
64544;BME280;50936;51.660;5.616;2023-07-31T12:36:47;100270.72;;;27.93;53.20
64544;BME280;50936;51.660;5.616;2023-07-31T12:39:17;100276.53;;;27.92;53.19
64544;BME280;50936;51.660;5.616;2023-07-31T12:41:44;100267.94;;;27.93;52.89
64544;BME280;50936;51.660;5.616;2023-07-31T12:44:11;100264.56;;;27.91;52.90
64544;BME280;50936;51.660;5.616;2023-07-31T12:46:38;100264.09;;;27.94;52.93
64544;BME280;50936;51.660;5.616;2023-07-31T12:49:05;100262.38;;;27.93;53.01
64544;BME280;50936;51.660;5.616;2023-07-31T12:51:32;100266.88;;;27.94;52.80
64544;BME280;50936;51.660;5.616;2023-07-31T12:53:59;100252.38;;;27.92;52.87
64544;BME280;50936;51.660;5.616;2023-07-31T12:56:26;100255.16;;;27.92;52.96
64544;BME280;50936;51.660;5.616;2023-07-31T12:58:53;100256.84;;;27.93;52.99
64544;BME280;50936;51.660;5.616;2023-07-31T13:01:20;100251.56;;;27.92;53.19
64544;BME280;50936;51.660;5.616;2023-07-31T13:03:47;100249.16;;;27.95;52.99
64544;BME280;50936;51.660;5.616;2023-07-31T13:06:14;100247.69;;;27.93;53.12